sensor_id;sensor_type;location;lat;lon;timestamp;P1;durP1;ratioP1;P2;durP2;ratioP2
49978;SDS011;35869;50.990;6.962;2023-11-22T00:03:51;11.98;;;9.20;;
49978;SDS011;35869;50.990;6.962;2023-11-22T00:08:51;13.05;;;9.63;;
49978;SDS011;35869;50.990;6.962;2023-11-22T00:13:52;11.68;;;9.05;;
49978;SDS011;35869;50.990;6.962;2023-11-22T00:18:52;12.27;;;8.48;;
49978;SDS011;35869;50.990;6.962;2023-11-22T00:23:52;11.73;;;8.87;;
49978;SDS011;35869;50.990;6.962;2023-11-22T00:28:53;13.52;;;10.00;;
49978;SDS011;35869;50.990;6.962;2023-11-22T00:33:53;13.75;;;9.80;;
49978;SDS011;35869;50.990;6.962;2023-11-22T00:38:53;14.60;;;10.52;;
49978;SDS011;35869;50.990;6.962;2023-11-22T00:43:53;14.23;;;10.32;;
49978;SDS011;35869;50.990;6.962;2023-11-22T00:48:54;13.48;;;9.63;;
49978;SDS011;35869;50.990;6.962;2023-11-22T00:53:54;13.77;;;10.27;;
49978;SDS011;35869;50.990;6.962;2023-11-22T00:58:54;12.43;;;9.30;;
49978;SDS011;35869;50.990;6.962;2023-11-22T01:03:54;12.93;;;9.68;;
49978;SDS011;35869;50.990;6.962;2023-11-22T01:08:55;13.52;;;10.02;;
49978;SDS011;35869;50.990;6.962;2023-11-22T01:13:55;16.42;;;10.85;;
49978;SDS011;35869;50.990;6.962;2023-11-22T01:18:55;13.23;;;10.05;;
49978;SDS011;35869;50.990;6.962;2023-11-22T01:23:55;17.05;;;10.65;;
49978;SDS011;35869;50.990;6.962;2023-11-22T01:28:55;17.48;;;10.63;;
49978;SDS011;35869;50.990;6.962;2023-11-22T01:33:56;13.30;;;9.82;;
49978;SDS011;35869;50.990;6.962;2023-11-22T01:38:56;13.65;;;10.23;;
49978;SDS011;35869;50.990;6.962;2023-11-22T01:43:56;13.43;;;9.57;;
49978;SDS011;35869;50.990;6.962;2023-11-22T01:48:56;15.15;;;10.90;;
49978;SDS011;35869;50.990;6.962;2023-11-22T01:53:57;12.90;;;10.03;;
49978;SDS011;35869;50.990;6.962;2023-11-22T01:58:58;14.93;;;11.68;;
49978;SDS011;35869;50.990;6.962;2023-11-22T02:03:58;13.87;;;11.33;;
49978;SDS011;35869;50.990;6.962;2023-11-22T02:08:58;14.65;;;10.85;;
49978;SDS011;35869;50.990;6.962;2023-11-22T02:13:59;11.43;;;9.60;;
49978;SDS011;35869;50.990;6.962;2023-11-22T02:18:59;14.70;;;10.00;;
49978;SDS011;35869;50.990;6.962;2023-11-22T02:24:00;13.93;;;9.82;;
49978;SDS011;35869;50.990;6.962;2023-11-22T02:29:00;11.43;;;8.87;;
49978;SDS011;35869;50.990;6.962;2023-11-22T02:34:00;22.20;;;9.88;;
49978;SDS011;35869;50.990;6.962;2023-11-22T02:39:00;14.60;;;10.02;;
49978;SDS011;35869;50.990;6.962;2023-11-22T02:44:01;12.17;;;9.77;;
49978;SDS011;35869;50.990;6.962;2023-11-22T02:49:01;12.77;;;10.87;;
49978;SDS011;35869;50.990;6.962;2023-11-22T02:54:01;12.03;;;9.53;;
49978;SDS011;35869;50.990;6.962;2023-11-22T02:59:02;11.30;;;8.60;;
49978;SDS011;35869;50.990;6.962;2023-11-22T03:04:02;13.05;;;9.75;;
49978;SDS011;35869;50.990;6.962;2023-11-22T03:09:03;12.53;;;9.97;;
49978;SDS011;35869;50.990;6.962;2023-11-22T03:14:03;12.63;;;9.90;;
49978;SDS011;35869;50.990;6.962;2023-11-22T03:19:03;10.35;;;8.73;;
49978;SDS011;35869;50.990;6.962;2023-11-22T03:24:04;11.93;;;9.43;;
49978;SDS011;35869;50.990;6.962;2023-11-22T03:29:04;11.18;;;8.90;;
49978;SDS011;35869;50.990;6.962;2023-11-22T03:34:04;14.18;;;9.52;;
49978;SDS011;35869;50.990;6.962;2023-11-22T03:39:05;13.63;;;10.43;;
49978;SDS011;35869;50.990;6.962;2023-11-22T03:44:05;12.65;;;9.45;;
49978;SDS011;35869;50.990;6.962;2023-11-22T03:49:05;12.55;;;9.82;;
49978;SDS011;35869;50.990;6.962;2023-11-22T03:54:06;11.27;;;9.50;;
49978;SDS011;35869;50.990;6.962;2023-11-22T03:59:06;13.00;;;11.00;;
49978;SDS011;35869;50.990;6.962;2023-11-22T04:04:07;13.30;;;10.70;;
49978;SDS011;35869;50.990;6.962;2023-11-22T04:09:07;13.23;;;11.02;;
49978;SDS011;35869;50.990;6.962;2023-11-22T04:14:07;15.73;;;11.68;;
49978;SDS011;35869;50.990;6.962;2023-11-22T04:19:08;14.87;;;11.93;;
49978;SDS011;35869;50.990;6.962;2023-11-22T04:24:08;19.70;;;11.90;;
49978;SDS011;35869;50.990;6.962;2023-11-22T04:29:08;16.53;;;11.97;;
49978;SDS011;35869;50.990;6.962;2023-11-22T04:34:08;15.02;;;12.52;;
49978;SDS011;35869;50.990;6.962;2023-11-22T04:39:09;16.55;;;12.98;;
49978;SDS011;35869;50.990;6.962;2023-11-22T04:44:09;14.93;;;11.60;;
49978;SDS011;35869;50.990;6.962;2023-11-22T04:49:09;17.05;;;12.35;;
49978;SDS011;35869;50.990;6.962;2023-11-22T04:54:09;19.25;;;13.65;;
49978;SDS011;35869;50.990;6.962;2023-11-22T04:59:10;16.52;;;12.48;;
49978;SDS011;35869;50.990;6.962;2023-11-22T05:04:10;15.73;;;11.47;;
49978;SDS011;35869;50.990;6.962;2023-11-22T05:09:10;17.17;;;12.25;;
49978;SDS011;35869;50.990;6.962;2023-11-22T05:14:11;14.70;;;11.45;;
49978;SDS011;35869;50.990;6.962;2023-11-22T05:19:11;15.82;;;11.98;;
49978;SDS011;35869;50.990;6.962;2023-11-22T05:24:11;15.55;;;11.52;;
49978;SDS011;35869;50.990;6.962;2023-11-22T05:29:12;16.08;;;11.75;;
49978;SDS011;35869;50.990;6.962;2023-11-22T05:34:12;13.25;;;10.90;;
49978;SDS011;35869;50.990;6.962;2023-11-22T05:39:12;14.37;;;10.60;;
49978;SDS011;35869;50.990;6.962;2023-11-22T05:44:12;14.45;;;10.57;;
49978;SDS011;35869;50.990;6.962;2023-11-22T05:49:13;14.05;;;11.10;;
49978;SDS011;35869;50.990;6.962;2023-11-22T05:54:13;11.85;;;9.38;;
49978;SDS011;35869;50.990;6.962;2023-11-22T05:59:13;11.57;;;9.07;;
49978;SDS011;35869;50.990;6.962;2023-11-22T06:04:13;12.15;;;8.57;;
49978;SDS011;35869;50.990;6.962;2023-11-22T06:09:14;11.40;;;9.70;;
49978;SDS011;35869;50.990;6.962;2023-11-22T06:14:14;11.32;;;9.23;;
49978;SDS011;35869;50.990;6.962;2023-11-22T06:19:14;9.82;;;8.18;;
49978;SDS011;35869;50.990;6.962;2023-11-22T06:24:14;11.15;;;8.30;;
49978;SDS011;35869;50.990;6.962;2023-11-22T06:29:15;10.07;;;7.82;;
49978;SDS011;35869;50.990;6.962;2023-11-22T06:34:15;11.13;;;8.97;;
49978;SDS011;35869;50.990;6.962;2023-11-22T06:39:17;11.20;;;8.77;;
49978;SDS011;35869;50.990;6.962;2023-11-22T06:44:18;8.88;;;7.20;;
49978;SDS011;35869;50.990;6.962;2023-11-22T06:49:18;10.13;;;8.18;;
49978;SDS011;35869;50.990;6.962;2023-11-22T06:54:19;10.82;;;8.75;;
49978;SDS011;35869;50.990;6.962;2023-11-22T06:59:19;9.43;;;7.68;;
49978;SDS011;35869;50.990;6.962;2023-11-22T07:04:20;10.82;;;8.18;;
49978;SDS011;35869;50.990;6.962;2023-11-22T07:09:20;12.77;;;8.50;;
49978;SDS011;35869;50.990;6.962;2023-11-22T07:14:20;10.27;;;8.02;;
49978;SDS011;35869;50.990;6.962;2023-11-22T07:19:20;10.95;;;8.35;;
49978;SDS011;35869;50.990;6.962;2023-11-22T07:24:21;9.13;;;8.18;;
49978;SDS011;35869;50.990;6.962;2023-11-22T07:29:21;9.98;;;8.73;;
49978;SDS011;35869;50.990;6.962;2023-11-22T07:34:21;12.90;;;10.47;;
49978;SDS011;35869;50.990;6.962;2023-11-22T07:39:22;13.20;;;10.03;;
49978;SDS011;35869;50.990;6.962;2023-11-22T07:44:22;12.00;;;10.40;;
49978;SDS011;35869;50.990;6.962;2023-11-22T07:49:23;19.83;;;13.68;;
49978;SDS011;35869;50.990;6.962;2023-11-22T07:54:23;26.65;;;13.40;;
49978;SDS011;35869;50.990;6.962;2023-11-22T07:59:24;9.67;;;7.37;;
49978;SDS011;35869;50.990;6.962;2023-11-22T08:09:25;9.57;;;6.70;;
49978;SDS011;35869;50.990;6.962;2023-11-22T08:14:25;9.63;;;6.53;;
49978;SDS011;35869;50.990;6.962;2023-11-22T08:19:25;9.27;;;7.97;;
49978;SDS011;35869;50.990;6.962;2023-11-22T08:24:26;8.87;;;7.00;;
49978;SDS011;35869;50.990;6.962;2023-11-22T08:29:29;10.17;;;7.27;;
49978;SDS011;35869;50.990;6.962;2023-11-22T08:34:29;10.10;;;6.38;;
49978;SDS011;35869;50.990;6.962;2023-11-22T08:39:30;8.37;;;6.50;;
49978;SDS011;35869;50.990;6.962;2023-11-22T08:44:30;7.50;;;6.00;;
49978;SDS011;35869;50.990;6.962;2023-11-22T08:49:30;8.23;;;6.57;;
49978;SDS011;35869;50.990;6.962;2023-11-22T08:54:31;6.77;;;6.07;;
49978;SDS011;35869;50.990;6.962;2023-11-22T08:59:31;7.18;;;5.80;;
49978;SDS011;35869;50.990;6.962;2023-11-22T09:04:32;5.25;;;4.47;;
49978;SDS011;35869;50.990;6.962;2023-11-22T09:09:33;7.47;;;3.90;;
49978;SDS011;35869;50.990;6.962;2023-11-22T09:14:33;7.53;;;6.10;;
49978;SDS011;35869;50.990;6.962;2023-11-22T09:19:33;8.40;;;5.90;;
49978;SDS011;35869;50.990;6.962;2023-11-22T09:24:36;13.63;;;7.60;;
49978;SDS011;35869;50.990;6.962;2023-11-22T09:29:39;13.50;;;7.43;;
49978;SDS011;35869;50.990;6.962;2023-11-22T09:34:45;11.45;;;6.72;;
49978;SDS011;35869;50.990;6.962;2023-11-22T09:39:46;5.93;;;5.32;;
49978;SDS011;35869;50.990;6.962;2023-11-22T09:44:46;6.97;;;5.43;;
49978;SDS011;35869;50.990;6.962;2023-11-22T09:49:46;6.93;;;4.65;;
49978;SDS011;35869;50.990;6.962;2023-11-22T09:54:52;8.07;;;5.30;;
49978;SDS011;35869;50.990;6.962;2023-11-22T09:59:53;5.20;;;4.10;;
49978;SDS011;35869;50.990;6.962;2023-11-22T10:04:57;5.07;;;3.72;;
49978;SDS011;35869;50.990;6.962;2023-11-22T10:09:57;3.17;;;2.33;;
49978;SDS011;35869;50.990;6.962;2023-11-22T10:15:13;4.60;;;2.45;;
49978;SDS011;35869;50.990;6.962;2023-11-22T10:20:14;3.00;;;2.47;;
49978;SDS011;35869;50.990;6.962;2023-11-22T10:25:14;3.47;;;2.93;;
49978;SDS011;35869;50.990;6.962;2023-11-22T10:30:15;3.55;;;2.88;;
49978;SDS011;35869;50.990;6.962;2023-11-22T10:35:15;6.57;;;3.57;;
49978;SDS011;35869;50.990;6.962;2023-11-22T10:40:15;5.25;;;3.10;;
49978;SDS011;35869;50.990;6.962;2023-11-22T10:45:16;4.47;;;2.80;;
49978;SDS011;35869;50.990;6.962;2023-11-22T10:50:18;3.50;;;2.15;;
49978;SDS011;35869;50.990;6.962;2023-11-22T10:55:18;5.63;;;2.83;;
49978;SDS011;35869;50.990;6.962;2023-11-22T11:00:19;5.97;;;3.92;;
49978;SDS011;35869;50.990;6.962;2023-11-22T11:05:21;6.45;;;4.47;;
49978;SDS011;35869;50.990;6.962;2023-11-22T11:10:27;6.82;;;3.90;;
49978;SDS011;35869;50.990;6.962;2023-11-22T11:15:28;5.03;;;3.67;;
49978;SDS011;35869;50.990;6.962;2023-11-22T11:20:40;8.52;;;3.53;;
49978;SDS011;35869;50.990;6.962;2023-11-22T11:25:56;4.43;;;3.65;;
49978;SDS011;35869;50.990;6.962;2023-11-22T11:30:58;5.18;;;3.30;;
49978;SDS011;35869;50.990;6.962;2023-11-22T11:36:00;3.80;;;2.83;;
49978;SDS011;35869;50.990;6.962;2023-11-22T11:41:11;6.00;;;3.55;;
49978;SDS011;35869;50.990;6.962;2023-11-22T11:46:12;4.45;;;3.13;;
49978;SDS011;35869;50.990;6.962;2023-11-22T11:51:17;4.78;;;3.80;;
49978;SDS011;35869;50.990;6.962;2023-11-22T11:56:18;5.28;;;3.40;;
49978;SDS011;35869;50.990;6.962;2023-11-22T12:01:18;5.60;;;3.70;;
49978;SDS011;35869;50.990;6.962;2023-11-22T12:06:19;4.43;;;3.23;;
49978;SDS011;35869;50.990;6.962;2023-11-22T12:11:24;4.35;;;3.63;;
49978;SDS011;35869;50.990;6.962;2023-11-22T12:16:33;5.90;;;3.80;;
49978;SDS011;35869;50.990;6.962;2023-11-22T12:21:33;6.00;;;4.05;;
49978;SDS011;35869;50.990;6.962;2023-11-22T12:26:33;6.43;;;3.53;;
49978;SDS011;35869;50.990;6.962;2023-11-22T12:31:34;3.22;;;2.88;;
49978;SDS011;35869;50.990;6.962;2023-11-22T12:36:34;5.07;;;3.47;;
49978;SDS011;35869;50.990;6.962;2023-11-22T12:41:35;5.57;;;3.45;;
49978;SDS011;35869;50.990;6.962;2023-11-22T12:46:45;3.70;;;2.75;;
49978;SDS011;35869;50.990;6.962;2023-11-22T12:51:48;3.10;;;2.43;;
49978;SDS011;35869;50.990;6.962;2023-11-22T12:56:49;4.55;;;2.95;;
49978;SDS011;35869;50.990;6.962;2023-11-22T13:01:50;3.40;;;3.03;;
49978;SDS011;35869;50.990;6.962;2023-11-22T13:06:50;5.00;;;3.67;;
49978;SDS011;35869;50.990;6.962;2023-11-22T13:11:51;5.10;;;3.22;;
49978;SDS011;35869;50.990;6.962;2023-11-22T13:21:52;4.30;;;3.42;;
49978;SDS011;35869;50.990;6.962;2023-11-22T13:26:52;4.15;;;3.28;;
49978;SDS011;35869;50.990;6.962;2023-11-22T13:31:52;3.10;;;2.47;;
49978;SDS011;35869;50.990;6.962;2023-11-22T13:36:53;4.50;;;3.20;;
49978;SDS011;35869;50.990;6.962;2023-11-22T13:41:53;9.63;;;4.45;;
49978;SDS011;35869;50.990;6.962;2023-11-22T13:46:53;5.47;;;3.25;;
49978;SDS011;35869;50.990;6.962;2023-11-22T13:51:53;4.50;;;3.20;;
49978;SDS011;35869;50.990;6.962;2023-11-22T13:56:54;5.97;;;3.35;;
49978;SDS011;35869;50.990;6.962;2023-11-22T14:01:54;3.42;;;3.08;;
49978;SDS011;35869;50.990;6.962;2023-11-22T14:06:54;3.00;;;2.60;;
49978;SDS011;35869;50.990;6.962;2023-11-22T14:11:54;3.83;;;3.08;;
49978;SDS011;35869;50.990;6.962;2023-11-22T14:16:55;5.85;;;3.63;;
49978;SDS011;35869;50.990;6.962;2023-11-22T14:21:55;4.40;;;2.60;;
49978;SDS011;35869;50.990;6.962;2023-11-22T14:26:55;2.55;;;2.28;;
49978;SDS011;35869;50.990;6.962;2023-11-22T14:31:56;2.97;;;2.22;;
49978;SDS011;35869;50.990;6.962;2023-11-22T14:36:56;2.47;;;1.73;;
49978;SDS011;35869;50.990;6.962;2023-11-22T14:41:56;3.92;;;1.92;;
49978;SDS011;35869;50.990;6.962;2023-11-22T14:46:57;2.25;;;1.60;;
49978;SDS011;35869;50.990;6.962;2023-11-22T14:51:57;2.22;;;1.60;;
49978;SDS011;35869;50.990;6.962;2023-11-22T14:56:57;2.90;;;2.17;;
49978;SDS011;35869;50.990;6.962;2023-11-22T15:01:58;4.23;;;2.37;;
49978;SDS011;35869;50.990;6.962;2023-11-22T15:06:58;4.70;;;3.53;;
49978;SDS011;35869;50.990;6.962;2023-11-22T15:11:59;6.97;;;3.90;;
49978;SDS011;35869;50.990;6.962;2023-11-22T15:17:02;6.03;;;4.53;;
49978;SDS011;35869;50.990;6.962;2023-11-22T15:22:02;7.67;;;5.43;;
49978;SDS011;35869;50.990;6.962;2023-11-22T15:27:03;7.27;;;5.60;;
49978;SDS011;35869;50.990;6.962;2023-11-22T15:32:03;6.03;;;5.40;;
49978;SDS011;35869;50.990;6.962;2023-11-22T15:37:03;11.07;;;6.10;;
49978;SDS011;35869;50.990;6.962;2023-11-22T15:42:04;10.43;;;6.07;;
49978;SDS011;35869;50.990;6.962;2023-11-22T15:47:04;11.13;;;6.13;;
49978;SDS011;35869;50.990;6.962;2023-11-22T15:52:04;8.30;;;6.28;;
49978;SDS011;35869;50.990;6.962;2023-11-22T15:57:12;10.20;;;6.20;;
49978;SDS011;35869;50.990;6.962;2023-11-22T16:02:12;10.77;;;6.65;;
49978;SDS011;35869;50.990;6.962;2023-11-22T16:07:12;8.00;;;5.30;;
49978;SDS011;35869;50.990;6.962;2023-11-22T16:12:12;9.90;;;5.55;;
49978;SDS011;35869;50.990;6.962;2023-11-22T16:17:13;9.93;;;6.50;;
49978;SDS011;35869;50.990;6.962;2023-11-22T16:22:13;10.52;;;6.53;;
49978;SDS011;35869;50.990;6.962;2023-11-22T16:27:14;8.35;;;6.05;;
49978;SDS011;35869;50.990;6.962;2023-11-22T16:32:14;12.55;;;6.43;;
49978;SDS011;35869;50.990;6.962;2023-11-22T16:37:14;11.00;;;6.15;;
49978;SDS011;35869;50.990;6.962;2023-11-22T16:42:14;12.10;;;8.13;;
49978;SDS011;35869;50.990;6.962;2023-11-22T16:47:14;9.18;;;6.55;;
49978;SDS011;35869;50.990;6.962;2023-11-22T16:52:15;7.95;;;5.53;;
49978;SDS011;35869;50.990;6.962;2023-11-22T16:57:15;9.30;;;6.25;;
49978;SDS011;35869;50.990;6.962;2023-11-22T17:02:15;8.77;;;5.65;;
49978;SDS011;35869;50.990;6.962;2023-11-22T17:07:16;8.43;;;5.05;;
49978;SDS011;35869;50.990;6.962;2023-11-22T17:12:16;7.90;;;5.50;;
49978;SDS011;35869;50.990;6.962;2023-11-22T17:17:16;7.40;;;6.07;;
49978;SDS011;35869;50.990;6.962;2023-11-22T17:22:17;7.87;;;6.23;;
49978;SDS011;35869;50.990;6.962;2023-11-22T17:27:18;8.10;;;5.80;;
49978;SDS011;35869;50.990;6.962;2023-11-22T17:37:26;7.95;;;6.22;;
49978;SDS011;35869;50.990;6.962;2023-11-22T17:42:26;9.73;;;6.15;;
49978;SDS011;35869;50.990;6.962;2023-11-22T17:47:26;9.85;;;6.72;;
49978;SDS011;35869;50.990;6.962;2023-11-22T17:52:26;10.88;;;6.43;;
49978;SDS011;35869;50.990;6.962;2023-11-22T17:57:27;10.77;;;6.47;;
49978;SDS011;35869;50.990;6.962;2023-11-22T18:02:27;7.55;;;6.55;;
49978;SDS011;35869;50.990;6.962;2023-11-22T18:07:27;12.55;;;7.63;;
49978;SDS011;35869;50.990;6.962;2023-11-22T18:12:28;12.52;;;7.72;;
49978;SDS011;35869;50.990;6.962;2023-11-22T18:22:29;10.70;;;6.68;;
49978;SDS011;35869;50.990;6.962;2023-11-22T18:27:29;8.82;;;6.85;;
49978;SDS011;35869;50.990;6.962;2023-11-22T18:32:29;9.73;;;6.30;;
49978;SDS011;35869;50.990;6.962;2023-11-22T18:37:30;9.43;;;6.80;;
49978;SDS011;35869;50.990;6.962;2023-11-22T18:42:30;9.13;;;7.27;;
49978;SDS011;35869;50.990;6.962;2023-11-22T18:47:30;10.05;;;7.20;;
49978;SDS011;35869;50.990;6.962;2023-11-22T18:52:31;10.95;;;6.78;;
49978;SDS011;35869;50.990;6.962;2023-11-22T18:57:31;8.07;;;5.83;;
49978;SDS011;35869;50.990;6.962;2023-11-22T19:02:32;8.53;;;5.90;;
49978;SDS011;35869;50.990;6.962;2023-11-22T19:07:32;9.73;;;6.00;;
49978;SDS011;35869;50.990;6.962;2023-11-22T19:12:33;7.67;;;6.37;;
49978;SDS011;35869;50.990;6.962;2023-11-22T19:17:33;9.68;;;6.57;;
49978;SDS011;35869;50.990;6.962;2023-11-22T19:22:33;10.27;;;7.30;;
49978;SDS011;35869;50.990;6.962;2023-11-22T19:27:34;10.73;;;7.15;;
49978;SDS011;35869;50.990;6.962;2023-11-22T19:32:34;12.20;;;8.25;;
49978;SDS011;35869;50.990;6.962;2023-11-22T19:37:34;10.98;;;7.30;;
49978;SDS011;35869;50.990;6.962;2023-11-22T19:42:34;11.68;;;7.85;;
49978;SDS011;35869;50.990;6.962;2023-11-22T19:47:35;12.10;;;8.13;;
49978;SDS011;35869;50.990;6.962;2023-11-22T19:52:35;10.77;;;8.30;;
49978;SDS011;35869;50.990;6.962;2023-11-22T19:57:36;10.52;;;7.53;;
49978;SDS011;35869;50.990;6.962;2023-11-22T20:02:36;10.77;;;8.00;;
49978;SDS011;35869;50.990;6.962;2023-11-22T20:07:36;12.70;;;9.32;;
49978;SDS011;35869;50.990;6.962;2023-11-22T20:12:37;10.83;;;9.00;;
49978;SDS011;35869;50.990;6.962;2023-11-22T20:17:37;13.55;;;9.65;;
49978;SDS011;35869;50.990;6.962;2023-11-22T20:22:37;15.57;;;9.75;;
49978;SDS011;35869;50.990;6.962;2023-11-22T20:27:38;11.40;;;8.83;;
49978;SDS011;35869;50.990;6.962;2023-11-22T20:32:39;12.52;;;9.20;;
49978;SDS011;35869;50.990;6.962;2023-11-22T20:37:39;10.07;;;7.88;;
49978;SDS011;35869;50.990;6.962;2023-11-22T20:42:39;11.55;;;8.27;;
49978;SDS011;35869;50.990;6.962;2023-11-22T20:47:39;13.07;;;8.32;;
49978;SDS011;35869;50.990;6.962;2023-11-22T20:52:40;12.57;;;8.75;;
49978;SDS011;35869;50.990;6.962;2023-11-22T20:57:40;14.90;;;8.77;;
49978;SDS011;35869;50.990;6.962;2023-11-22T21:02:40;11.35;;;7.20;;
49978;SDS011;35869;50.990;6.962;2023-11-22T21:07:40;10.52;;;8.15;;
49978;SDS011;35869;50.990;6.962;2023-11-22T21:12:41;8.77;;;6.30;;
49978;SDS011;35869;50.990;6.962;2023-11-22T21:17:41;11.75;;;8.18;;
49978;SDS011;35869;50.990;6.962;2023-11-22T21:22:41;9.63;;;7.68;;
49978;SDS011;35869;50.990;6.962;2023-11-22T21:27:42;15.77;;;8.32;;
49978;SDS011;35869;50.990;6.962;2023-11-22T21:32:42;12.32;;;8.25;;
49978;SDS011;35869;50.990;6.962;2023-11-22T21:37:42;11.70;;;7.30;;
49978;SDS011;35869;50.990;6.962;2023-11-22T21:42:42;10.63;;;7.40;;
49978;SDS011;35869;50.990;6.962;2023-11-22T21:47:42;11.05;;;7.18;;
49978;SDS011;35869;50.990;6.962;2023-11-22T21:52:43;6.78;;;6.05;;
49978;SDS011;35869;50.990;6.962;2023-11-22T21:57:43;8.68;;;6.15;;
49978;SDS011;35869;50.990;6.962;2023-11-22T22:02:43;9.15;;;6.65;;
49978;SDS011;35869;50.990;6.962;2023-11-22T22:07:43;9.52;;;6.50;;
49978;SDS011;35869;50.990;6.962;2023-11-22T22:12:44;8.57;;;5.93;;
49978;SDS011;35869;50.990;6.962;2023-11-22T22:17:44;9.40;;;6.03;;
49978;SDS011;35869;50.990;6.962;2023-11-22T22:22:44;6.75;;;5.57;;
49978;SDS011;35869;50.990;6.962;2023-11-22T22:27:44;10.80;;;6.30;;
49978;SDS011;35869;50.990;6.962;2023-11-22T22:32:45;19.65;;;16.75;;
49978;SDS011;35869;50.990;6.962;2023-11-22T22:37:45;33.92;;;27.63;;
49978;SDS011;35869;50.990;6.962;2023-11-22T22:42:45;35.60;;;23.73;;
49978;SDS011;35869;50.990;6.962;2023-11-22T22:47:46;31.95;;;22.60;;
49978;SDS011;35869;50.990;6.962;2023-11-22T22:52:46;24.65;;;18.50;;
49978;SDS011;35869;50.990;6.962;2023-11-22T22:57:46;22.88;;;16.90;;
49978;SDS011;35869;50.990;6.962;2023-11-22T23:02:46;20.75;;;15.88;;
49978;SDS011;35869;50.990;6.962;2023-11-22T23:07:47;18.93;;;14.90;;
49978;SDS011;35869;50.990;6.962;2023-11-22T23:12:47;16.02;;;12.13;;
49978;SDS011;35869;50.990;6.962;2023-11-22T23:17:47;16.02;;;10.45;;
49978;SDS011;35869;50.990;6.962;2023-11-22T23:22:47;11.65;;;8.98;;
49978;SDS011;35869;50.990;6.962;2023-11-22T23:27:48;11.90;;;7.43;;
49978;SDS011;35869;50.990;6.962;2023-11-22T23:32:48;11.13;;;8.00;;
49978;SDS011;35869;50.990;6.962;2023-11-22T23:37:49;9.00;;;6.18;;
49978;SDS011;35869;50.990;6.962;2023-11-22T23:42:49;8.20;;;6.45;;
49978;SDS011;35869;50.990;6.962;2023-11-22T23:47:49;11.60;;;7.13;;
49978;SDS011;35869;50.990;6.962;2023-11-22T23:52:49;9.43;;;6.47;;
49978;SDS011;35869;50.990;6.962;2023-11-22T23:57:50;9.65;;;6.88;;
